createdAt,value
2017-07-27T00:00:26.596Z,0
2017-07-27T00:01:26.587Z,0
2017-07-27T00:02:26.584Z,0
2017-07-27T00:03:26.557Z,0
2017-07-27T00:04:26.231Z,0
2017-07-27T00:05:26.212Z,0
2017-07-27T00:06:26.505Z,0
2017-07-27T00:07:26.200Z,0
2017-07-27T00:08:26.176Z,0
2017-07-27T00:09:26.465Z,0
2017-07-27T00:10:26.454Z,0
2017-07-27T00:11:26.139Z,0
2017-07-27T00:12:26.426Z,0
2017-07-27T00:13:26.407Z,0
2017-07-27T00:14:26.092Z,0
2017-07-27T00:15:26.364Z,0
2017-07-27T00:16:26.354Z,0
2017-07-27T00:17:26.336Z,0
2017-07-27T00:18:26.315Z,0
2017-07-27T00:19:26.310Z,0
2017-07-27T00:20:26.289Z,0
2017-07-27T00:21:26.264Z,0
2017-07-27T00:22:26.261Z,0
2017-07-27T00:23:26.255Z,0
2017-07-27T00:24:26.228Z,0
2017-07-27T00:25:26.225Z,0
2017-07-27T00:26:26.202Z,0
2017-07-27T00:27:26.191Z,0
2017-07-27T00:28:26.175Z,0
2017-07-27T00:29:25.545Z,0
2017-07-27T00:30:26.142Z,0
2017-07-27T00:31:26.121Z,0
2017-07-27T00:32:26.113Z,0
2017-07-27T00:33:26.094Z,0
2017-07-27T00:34:26.101Z,0
2017-07-27T00:35:26.071Z,0
2017-07-27T00:36:26.054Z,0
2017-07-27T00:37:26.025Z,0
2017-07-27T00:38:26.004Z,0
2017-07-27T00:39:25.701Z,0
2017-07-27T00:40:25.684Z,0
2017-07-27T00:41:25.969Z,0
2017-07-27T00:42:25.951Z,0
2017-07-27T00:43:25.947Z,0
2017-07-27T00:44:25.620Z,0
2017-07-27T00:45:25.915Z,0
2017-07-27T00:46:25.891Z,0
2017-07-27T00:47:25.572Z,0
2017-07-27T00:48:25.869Z,0
2017-07-27T00:49:25.853Z,0
2017-07-27T00:50:25.842Z,0
2017-07-27T00:51:25.816Z,0
2017-07-27T00:52:25.816Z,0
2017-07-27T00:53:25.800Z,0
2017-07-27T00:54:25.762Z,0
2017-07-27T00:55:25.754Z,0
2017-07-27T00:56:25.736Z,0
2017-07-27T00:57:25.723Z,0
2017-07-27T00:58:25.721Z,0
2017-07-27T00:59:25.702Z,0
2017-07-27T01:00:25.684Z,0
2017-07-27T01:01:25.678Z,0
2017-07-27T01:02:25.346Z,0
2017-07-27T01:03:25.335Z,0
2017-07-27T01:04:25.621Z,0
2017-07-27T01:05:25.603Z,0
2017-07-27T01:06:25.581Z,0
2017-07-27T01:07:25.261Z,0
2017-07-27T01:08:25.556Z,0
2017-07-27T01:09:25.545Z,0
2017-07-27T01:10:25.525Z,0
2017-07-27T01:11:25.505Z,0
2017-07-27T01:12:25.496Z,0
2017-07-27T01:13:25.470Z,0
2017-07-27T01:14:25.469Z,0
2017-07-27T01:15:25.454Z,0
2017-07-27T01:16:25.428Z,0
2017-07-27T01:17:25.428Z,0
2017-07-27T01:18:25.401Z,0
2017-07-27T01:19:25.080Z,0
2017-07-27T01:20:25.072Z,0
2017-07-27T01:21:25.355Z,0
2017-07-27T01:22:25.351Z,0
2017-07-27T01:23:25.332Z,0
2017-07-27T01:24:24.999Z,0
2017-07-27T01:25:25.298Z,0
2017-07-27T01:26:24.984Z,0
2017-07-27T01:27:25.263Z,0
2017-07-27T01:28:25.254Z,0
2017-07-27T01:29:25.221Z,0
2017-07-27T01:30:25.215Z,0
2017-07-27T01:31:24.908Z,0
2017-07-27T01:32:25.188Z,0
2017-07-27T01:33:24.877Z,0
2017-07-27T01:34:25.160Z,0
2017-07-27T01:35:25.138Z,0
2017-07-27T01:36:24.834Z,0
2017-07-27T01:37:25.114Z,0
2017-07-27T01:38:25.096Z,0
2017-07-27T01:39:25.084Z,0
2017-07-27T01:40:25.049Z,0
2017-07-27T01:41:25.048Z,0
2017-07-27T01:42:25.045Z,0
2017-07-27T01:43:25.018Z,0
2017-07-27T01:44:24.992Z,0
2017-07-27T01:45:24.980Z,0
2017-07-27T01:46:24.972Z,0
2017-07-27T01:47:24.952Z,0
2017-07-27T01:48:24.940Z,0
2017-07-27T01:49:24.630Z,0
2017-07-27T01:50:24.911Z,0
2017-07-27T01:51:24.893Z,0
2017-07-27T01:52:24.865Z,0
2017-07-27T01:53:24.873Z,0
2017-07-27T01:54:24.863Z,0
2017-07-27T01:55:24.833Z,0
2017-07-27T01:56:24.822Z,0
2017-07-27T01:57:24.801Z,0
2017-07-27T01:58:24.781Z,0
2017-07-27T01:59:24.783Z,0
2017-07-27T02:00:24.761Z,0
2017-07-27T02:01:24.744Z,0
2017-07-27T02:02:24.733Z,0
2017-07-27T02:03:24.101Z,0
2017-07-27T02:04:24.697Z,0
2017-07-27T02:05:24.384Z,0
2017-07-27T02:06:24.357Z,0
2017-07-27T02:07:24.652Z,0
2017-07-27T02:08:24.631Z,0
2017-07-27T02:09:24.620Z,0
2017-07-27T02:10:24.296Z,0
2017-07-27T02:11:24.596Z,0
2017-07-27T02:12:24.570Z,0
2017-07-27T02:13:24.257Z,0
2017-07-27T02:14:24.234Z,0
2017-07-27T02:15:24.217Z,0
2017-07-27T02:16:24.207Z,0
2017-07-27T02:17:24.187Z,0
2017-07-27T02:18:24.169Z,0
2017-07-27T02:19:24.153Z,0
2017-07-27T02:20:24.146Z,0
2017-07-27T02:21:24.155Z,0
2017-07-27T02:22:24.402Z,0
2017-07-27T02:23:24.403Z,0
2017-07-27T02:24:24.382Z,0
2017-07-27T02:25:24.073Z,0
2017-07-27T02:26:24.349Z,0
2017-07-27T02:27:24.025Z,0
2017-07-27T02:28:24.314Z,0
2017-07-27T02:29:24.293Z,0
2017-07-27T02:30:24.293Z,0
2017-07-27T02:31:24.269Z,0
2017-07-27T02:32:23.654Z,0
2017-07-27T02:33:24.250Z,0
2017-07-27T02:34:24.234Z,0
2017-07-27T02:35:24.207Z,0
2017-07-27T02:36:24.202Z,0
2017-07-27T02:37:24.174Z,0
2017-07-27T02:38:24.167Z,0
2017-07-27T02:39:23.853Z,0
2017-07-27T02:40:23.825Z,0
2017-07-27T02:41:23.820Z,0
2017-07-27T02:42:24.098Z,0
2017-07-27T02:43:24.086Z,0
2017-07-27T02:44:24.074Z,0
2017-07-27T02:45:24.062Z,0
2017-07-27T02:46:24.036Z,0
2017-07-27T02:47:24.026Z,0
2017-07-27T02:48:24.001Z,0
2017-07-27T02:49:23.999Z,0
2017-07-27T02:50:23.982Z,0
2017-07-27T02:51:23.671Z,0
2017-07-27T02:52:23.644Z,0
2017-07-27T02:53:23.924Z,0
2017-07-27T02:54:23.922Z,0
2017-07-27T02:55:23.893Z,0
2017-07-27T02:56:23.882Z,0
2017-07-27T02:57:23.871Z,0
2017-07-27T02:58:23.546Z,0
2017-07-27T02:59:23.841Z,0
2017-07-27T03:00:23.806Z,0
2017-07-27T03:01:23.810Z,0
2017-07-27T03:02:23.795Z,0
2017-07-27T03:03:23.762Z,0
2017-07-27T03:04:23.457Z,0
2017-07-27T03:05:23.743Z,0
2017-07-27T03:06:23.712Z,0
2017-07-27T03:07:23.702Z,0
2017-07-27T03:08:23.699Z,0
2017-07-27T03:09:23.678Z,0
2017-07-27T03:10:23.663Z,0
2017-07-27T03:11:23.666Z,0
2017-07-27T03:12:23.632Z,0
2017-07-27T03:13:23.617Z,0
2017-07-27T03:14:23.615Z,0
2017-07-27T03:15:23.586Z,0
2017-07-27T03:16:23.564Z,4
2017-07-27T03:17:23.563Z,4
2017-07-27T03:18:23.537Z,4
2017-07-27T03:19:23.522Z,0
2017-07-27T03:20:23.508Z,4
2017-07-27T03:21:23.499Z,4
2017-07-27T03:22:23.492Z,8
2017-07-27T03:23:23.477Z,4
2017-07-27T03:24:23.462Z,8
2017-07-27T03:25:23.434Z,8
2017-07-27T03:26:23.425Z,12
2017-07-27T03:27:23.414Z,12
2017-07-27T03:28:23.088Z,12
2017-07-27T03:29:23.380Z,12
2017-07-27T03:30:23.369Z,16
2017-07-27T03:31:23.347Z,20
2017-07-27T03:32:23.348Z,24
2017-07-27T03:33:23.324Z,28
2017-07-27T03:34:23.005Z,32
2017-07-27T03:35:22.983Z,36
2017-07-27T03:36:22.690Z,44
2017-07-27T03:37:23.269Z,48
2017-07-27T03:38:23.236Z,56
2017-07-27T03:39:23.236Z,64
2017-07-27T03:40:23.215Z,72
2017-07-27T03:41:23.189Z,84
2017-07-27T03:42:23.186Z,92
2017-07-27T03:43:23.168Z,104
2017-07-27T03:44:22.847Z,116
2017-07-27T03:45:22.833Z,124
2017-07-27T03:46:23.128Z,140
2017-07-27T03:47:23.153Z,156
2017-07-27T03:48:23.087Z,168
2017-07-27T03:49:23.070Z,184
2017-07-27T03:50:23.064Z,204
2017-07-27T03:51:23.048Z,220
2017-07-27T03:52:23.016Z,236
2017-07-27T03:53:23.011Z,260
2017-07-27T03:54:22.987Z,284
2017-07-27T03:55:22.987Z,304
2017-07-27T03:56:23.001Z,328
2017-07-27T03:57:22.650Z,352
2017-07-27T03:58:22.941Z,372
2017-07-27T03:59:22.919Z,396
2017-07-27T04:00:22.920Z,420
2017-07-27T04:01:22.893Z,444
2017-07-27T04:02:22.880Z,464
2017-07-27T04:03:22.565Z,488
2017-07-27T04:04:22.875Z,516
2017-07-27T04:05:22.542Z,536
2017-07-27T04:06:22.833Z,560
2017-07-27T04:07:22.510Z,584
2017-07-27T04:08:22.801Z,612
2017-07-27T04:09:22.786Z,632
2017-07-27T04:10:22.461Z,656
2017-07-27T04:11:22.763Z,680
2017-07-27T04:12:22.434Z,704
2017-07-27T04:13:22.727Z,724
2017-07-27T04:14:22.724Z,748
2017-07-27T04:15:22.698Z,772
2017-07-27T04:16:22.689Z,800
2017-07-27T04:17:22.670Z,824
2017-07-27T04:18:22.653Z,844
2017-07-27T04:19:22.646Z,868
2017-07-27T04:20:22.616Z,896
2017-07-27T04:21:22.615Z,916
2017-07-27T04:22:22.296Z,940
2017-07-27T04:23:22.585Z,964
2017-07-27T04:24:22.284Z,984
2017-07-27T04:25:22.550Z,1008
2017-07-27T04:26:22.246Z,1032
2017-07-27T04:27:22.534Z,1056
2017-07-27T04:28:22.513Z,1084
2017-07-27T04:29:22.218Z,1104
2017-07-27T04:30:22.203Z,1128
2017-07-27T04:31:22.177Z,1152
2017-07-27T04:32:22.460Z,1172
2017-07-27T04:33:22.149Z,1192
2017-07-27T04:34:22.127Z,1212
2017-07-27T04:35:22.121Z,1228
2017-07-27T04:36:22.113Z,1252
2017-07-27T04:37:22.405Z,1272
2017-07-27T04:38:22.379Z,1292
2017-07-27T04:39:22.364Z,1308
2017-07-27T04:40:22.365Z,1328
2017-07-27T04:41:22.340Z,1344
2017-07-27T04:42:22.332Z,1364
2017-07-27T04:43:22.331Z,1384
2017-07-27T04:44:22.302Z,1404
2017-07-27T04:45:21.984Z,1428
2017-07-27T04:46:22.273Z,1944
2017-07-27T04:47:22.264Z,3500
2017-07-27T04:48:22.239Z,4332
2017-07-27T04:49:22.229Z,4428
2017-07-27T04:50:21.919Z,4516
2017-07-27T04:51:22.210Z,4636
2017-07-27T04:52:22.174Z,4760
2017-07-27T04:53:22.177Z,4892
2017-07-27T04:54:22.153Z,5008
2017-07-27T04:55:22.143Z,5128
2017-07-27T04:56:21.818Z,5236
2017-07-27T04:57:21.831Z,5360
2017-07-27T04:58:21.788Z,5492
2017-07-27T04:59:22.086Z,5616
2017-07-27T05:00:21.771Z,5796
2017-07-27T05:01:21.452Z,5984
2017-07-27T05:02:22.031Z,6112
2017-07-27T05:03:22.021Z,6200
2017-07-27T05:04:22.005Z,6276
2017-07-27T05:05:21.999Z,6388
2017-07-27T05:06:21.669Z,6480
2017-07-27T05:07:21.959Z,6464
2017-07-27T05:08:21.973Z,6560
2017-07-27T05:09:21.933Z,6812
2017-07-27T05:10:21.929Z,7032
2017-07-27T05:11:21.620Z,7156
2017-07-27T05:12:21.897Z,7296
2017-07-27T05:13:21.572Z,7488
2017-07-27T05:14:21.864Z,7684
2017-07-27T05:15:21.559Z,7936
2017-07-27T05:16:21.538Z,8256
2017-07-27T05:17:21.825Z,8628
2017-07-27T05:18:21.808Z,9040
2017-07-27T05:19:21.797Z,9432
2017-07-27T05:20:21.809Z,9760
2017-07-27T05:21:21.763Z,10148
2017-07-27T05:22:21.758Z,10600
2017-07-27T05:23:21.744Z,10864
2017-07-27T05:24:21.730Z,10936
2017-07-27T05:25:21.723Z,10916
2017-07-27T05:26:21.403Z,10856
2017-07-27T05:27:21.684Z,10888
2017-07-27T05:28:21.672Z,10872
2017-07-27T05:29:21.659Z,7316
2017-07-27T05:30:21.661Z,8832
2017-07-27T05:31:21.340Z,9784
2017-07-27T05:32:21.626Z,11072
2017-07-27T05:33:21.622Z,11424
2017-07-27T05:34:21.591Z,10868
2017-07-27T05:35:21.587Z,11960
2017-07-27T05:36:21.576Z,12864
2017-07-27T05:37:21.560Z,12028
2017-07-27T05:38:21.546Z,12736
2017-07-27T05:39:21.534Z,12308
2017-07-27T05:40:21.529Z,10276
2017-07-27T05:41:21.515Z,12120
2017-07-27T05:42:21.499Z,11920
2017-07-27T05:43:21.481Z,7900
2017-07-27T05:44:21.469Z,8548
2017-07-27T05:45:21.447Z,8560
2017-07-27T05:46:21.446Z,8088
2017-07-27T05:47:21.438Z,11960
2017-07-27T05:48:21.432Z,9200
2017-07-27T05:49:21.400Z,10600
2017-07-27T05:50:21.384Z,9876
2017-07-27T05:51:21.379Z,11136
2017-07-27T05:52:21.374Z,11600
2017-07-27T05:53:21.363Z,8928
2017-07-27T05:54:21.034Z,9496
2017-07-27T05:55:21.025Z,9344
2017-07-27T05:56:21.298Z,8196
2017-07-27T05:57:21.287Z,8384
2017-07-27T05:58:21.292Z,8672
2017-07-27T05:59:21.262Z,7484
2017-07-27T06:00:21.257Z,7572
2017-07-27T06:01:21.250Z,7572
2017-07-27T06:02:21.237Z,7400
2017-07-27T06:03:20.936Z,7304
2017-07-27T06:04:21.217Z,7044
2017-07-27T06:05:20.899Z,7100
2017-07-27T06:06:20.870Z,7260
2017-07-27T06:07:21.171Z,7772
2017-07-27T06:08:20.847Z,8504
2017-07-27T06:09:21.152Z,11412
2017-07-27T06:10:20.826Z,9548
2017-07-27T06:11:21.117Z,10736
2017-07-27T06:12:20.796Z,11052
2017-07-27T06:13:20.793Z,9176
2017-07-27T06:14:21.083Z,9116
2017-07-27T06:15:21.080Z,8848
2017-07-27T06:16:21.048Z,8860
2017-07-27T06:17:21.045Z,8688
2017-07-27T06:18:21.015Z,8516
2017-07-27T06:19:20.709Z,8520
2017-07-27T06:20:20.996Z,8728
2017-07-27T06:21:20.992Z,8916
2017-07-27T06:22:20.997Z,9056
2017-07-27T06:23:20.961Z,8804
2017-07-27T06:24:20.951Z,8360
2017-07-27T06:25:20.938Z,8260
2017-07-27T06:26:20.922Z,8524
2017-07-27T06:27:20.927Z,8752
2017-07-27T06:28:20.910Z,9420
2017-07-27T06:29:20.592Z,10100
2017-07-27T06:30:20.876Z,10940
2017-07-27T06:31:20.859Z,11252
2017-07-27T06:32:20.846Z,11352
2017-07-27T06:33:20.820Z,11412
2017-07-27T06:34:20.843Z,11648
2017-07-27T06:35:20.502Z,12800
2017-07-27T06:36:20.805Z,13888
2017-07-27T06:37:20.485Z,14124
2017-07-27T06:38:20.771Z,14936
2017-07-27T06:39:20.768Z,15568
2017-07-27T06:40:20.451Z,15268
2017-07-27T06:41:20.417Z,14652
2017-07-27T06:42:20.715Z,14868
2017-07-27T06:43:20.413Z,14256
2017-07-27T06:44:20.692Z,14396
2017-07-27T06:45:20.697Z,14384
2017-07-27T06:46:20.360Z,14548
2017-07-27T06:47:20.663Z,14756
2017-07-27T06:48:20.343Z,14552
2017-07-27T06:49:20.325Z,14272
2017-07-27T06:50:20.611Z,13160
2017-07-27T06:51:20.610Z,12416
2017-07-27T06:52:20.595Z,11848
2017-07-27T06:53:20.260Z,11140
2017-07-27T06:54:20.572Z,10992
2017-07-27T06:55:20.246Z,11068
2017-07-27T06:56:20.529Z,10808
2017-07-27T06:57:20.536Z,10608
2017-07-27T06:58:20.504Z,10724
2017-07-27T06:59:19.889Z,10980
2017-07-27T07:00:20.487Z,10720
2017-07-27T07:01:20.469Z,10256
2017-07-27T07:02:20.156Z,9592
2017-07-27T07:03:34.078Z,8868
2017-07-27T07:04:20.349Z,8728
2017-07-27T07:05:20.429Z,8320
2017-07-27T07:06:20.405Z,8052
2017-07-27T07:07:20.407Z,7976
2017-07-27T07:08:20.401Z,8180
2017-07-27T07:09:20.385Z,8452
2017-07-27T07:10:20.377Z,8808
2017-07-27T07:11:20.357Z,9172
2017-07-27T07:12:20.337Z,9516
2017-07-27T07:13:20.326Z,9864
2017-07-27T07:14:20.327Z,10084
2017-07-27T07:15:20.303Z,10312
2017-07-27T07:16:20.283Z,10184
2017-07-27T07:17:19.985Z,10348
2017-07-27T07:18:20.267Z,10544
2017-07-27T07:19:19.944Z,10116
2017-07-27T07:20:19.939Z,9636
2017-07-27T07:21:19.918Z,9124
2017-07-27T07:22:20.217Z,8692
2017-07-27T07:23:19.904Z,8516
2017-07-27T07:24:20.205Z,8712
2017-07-27T07:25:20.182Z,8964
2017-07-27T07:26:20.156Z,9388
2017-07-27T07:27:20.155Z,9724
2017-07-27T07:28:20.142Z,9968
2017-07-27T07:29:20.144Z,10192
2017-07-27T07:30:20.118Z,10656
2017-07-27T07:31:20.098Z,11356
2017-07-27T07:32:20.087Z,11392
2017-07-27T07:33:34.693Z,11644
2017-07-27T07:34:20.082Z,12152
2017-07-27T07:35:20.052Z,13000
2017-07-27T07:36:20.034Z,13364
2017-07-27T07:37:19.739Z,13276
2017-07-27T07:38:20.031Z,13100
2017-07-27T07:39:20.024Z,12660
2017-07-27T07:40:20.205Z,12256
2017-07-27T07:41:19.990Z,12144
2017-07-27T07:42:19.978Z,12200
2017-07-27T07:43:19.661Z,12272
2017-07-27T07:44:19.962Z,12200
2017-07-27T07:45:19.637Z,12376
2017-07-27T07:46:19.630Z,12836
2017-07-27T07:47:19.925Z,13128
2017-07-27T07:48:19.912Z,13236
2017-07-27T07:49:19.581Z,14060
2017-07-27T07:50:19.879Z,15000
2017-07-27T07:51:19.869Z,16548
2017-07-27T07:52:19.871Z,18208
2017-07-27T07:53:19.841Z,19296
2017-07-27T07:54:19.832Z,19552
2017-07-27T07:55:19.818Z,18976
2017-07-27T07:56:19.825Z,18880
2017-07-27T07:57:19.488Z,19072
2017-07-27T07:58:19.482Z,18592
2017-07-27T07:59:19.462Z,18656
2017-07-27T08:00:19.759Z,18496
2017-07-27T08:01:19.761Z,18240
2017-07-27T08:02:19.731Z,17216
2017-07-27T08:03:19.736Z,16544
2017-07-27T08:04:19.395Z,15904
2017-07-27T08:05:19.401Z,15336
2017-07-27T08:06:19.693Z,14872
2017-07-27T08:07:19.680Z,14692
2017-07-27T08:08:19.350Z,14324
2017-07-27T08:09:19.641Z,14320
2017-07-27T08:10:19.621Z,14492
2017-07-27T08:11:19.606Z,14720
2017-07-27T08:12:19.609Z,14996
2017-07-27T08:13:19.588Z,15412
2017-07-27T08:14:19.585Z,15980
2017-07-27T08:15:19.466Z,16936
2017-07-27T08:16:19.254Z,17816
2017-07-27T08:17:19.543Z,18040
2017-07-27T08:18:19.524Z,17596
2017-07-27T08:19:19.526Z,17004
2017-07-27T08:20:19.495Z,16332
2017-07-27T08:21:19.179Z,15580
2017-07-27T08:22:19.485Z,14804
2017-07-27T08:23:19.460Z,14820
2017-07-27T08:24:19.458Z,14936
2017-07-27T08:25:19.442Z,15344
2017-07-27T08:26:19.428Z,15208
2017-07-27T08:27:19.102Z,15324
2017-07-27T08:28:19.086Z,15140
2017-07-27T08:29:19.084Z,15656
2017-07-27T08:30:19.370Z,16896
2017-07-27T08:31:19.355Z,18720
2017-07-27T08:32:19.039Z,20384
2017-07-27T08:33:19.341Z,22592
2017-07-27T08:34:18.710Z,23968
2017-07-27T08:35:19.008Z,25248
2017-07-27T08:36:18.686Z,26560
2017-07-27T08:37:19.193Z,27744
2017-07-27T08:38:19.264Z,28352
2017-07-27T08:39:18.340Z,28224
2017-07-27T08:40:19.235Z,26400
2017-07-27T08:41:19.232Z,24608
2017-07-27T08:42:19.213Z,23872
2017-07-27T08:43:19.189Z,22560
2017-07-27T08:44:19.174Z,21440
2017-07-27T08:45:19.171Z,21216
2017-07-27T08:46:19.062Z,22144
2017-07-27T08:47:19.127Z,22400
2017-07-27T08:48:18.819Z,23648
2017-07-27T08:49:18.808Z,26400
2017-07-27T08:50:19.092Z,29152
2017-07-27T08:51:19.295Z,31200
2017-07-27T08:52:19.057Z,31424
2017-07-27T08:53:18.760Z,31392
2017-07-27T08:54:18.725Z,31104
2017-07-27T08:55:18.719Z,31008
2017-07-27T08:56:18.721Z,30592
2017-07-27T08:57:18.989Z,30176
2017-07-27T08:58:18.690Z,28448
2017-07-27T08:59:18.975Z,27232
2017-07-27T09:00:18.638Z,26624
2017-07-27T09:01:18.940Z,26208
2017-07-27T09:02:18.615Z,25376
2017-07-27T09:03:18.602Z,25472
2017-07-27T09:04:18.894Z,26880
2017-07-27T09:05:18.875Z,28160
2017-07-27T09:06:18.869Z,29952
2017-07-27T09:07:18.856Z,30976
2017-07-27T09:08:19.820Z,30368
2017-07-27T09:09:18.511Z,29248
2017-07-27T09:10:18.499Z,27616
2017-07-27T09:11:18.491Z,26272
2017-07-27T09:12:18.478Z,25376
2017-07-27T09:13:18.761Z,25472
2017-07-27T09:14:18.758Z,25536
2017-07-27T09:15:18.735Z,27712
2017-07-27T09:16:18.422Z,29888
2017-07-27T09:17:32.053Z,32288
2017-07-27T09:18:18.696Z,34336
2017-07-27T09:19:18.691Z,38976
2017-07-27T09:20:18.675Z,42464
2017-07-27T09:21:18.363Z,45472
2017-07-27T09:22:18.544Z,45824
2017-07-27T09:23:18.313Z,47520
2017-07-27T09:24:17.997Z,48000
2017-07-27T09:25:18.588Z,51968
2017-07-27T09:26:18.264Z,60960
2017-07-27T09:27:18.558Z,64608
2017-07-27T09:28:18.262Z,70336
2017-07-27T09:29:18.552Z,62848
2017-07-27T09:30:18.535Z,67488
2017-07-27T09:31:18.202Z,67136
2017-07-27T09:32:18.507Z,54208
2017-07-27T09:33:18.183Z,45408
2017-07-27T09:34:18.466Z,45376
2017-07-27T09:35:18.473Z,49536
2017-07-27T09:36:18.442Z,56512
2017-07-27T09:37:18.124Z,59328
2017-07-27T09:38:18.118Z,54432
2017-07-27T09:39:18.403Z,50240
2017-07-27T09:40:18.084Z,50272
2017-07-27T09:41:18.078Z,54400
2017-07-27T09:42:17.760Z,58368
2017-07-27T09:43:18.340Z,63744
2017-07-27T09:44:18.368Z,65056
2017-07-27T09:45:17.712Z,60992
2017-07-27T09:46:18.319Z,58496
2017-07-27T09:47:17.991Z,58528
2017-07-27T09:48:17.663Z,61600
2017-07-27T09:49:17.662Z,61824
2017-07-27T09:50:18.244Z,57408
2017-07-27T09:51:18.237Z,53792
2017-07-27T09:52:18.214Z,52448
2017-07-27T09:53:18.210Z,50880
2017-07-27T09:54:17.902Z,49632
2017-07-27T09:55:18.181Z,50752
2017-07-27T09:56:18.163Z,52736
2017-07-27T09:57:18.356Z,53536
2017-07-27T09:58:17.833Z,52128
2017-07-27T09:59:18.132Z,47904
2017-07-27T10:00:17.822Z,44224
2017-07-27T10:01:17.805Z,42528
2017-07-27T10:02:17.791Z,42560
2017-07-27T10:03:17.774Z,43936
2017-07-27T10:04:17.764Z,44288
2017-07-27T10:05:18.049Z,45664
2017-07-27T10:06:17.732Z,48576
2017-07-27T10:07:18.018Z,50752
2017-07-27T10:08:18.012Z,52032
2017-07-27T10:09:18.011Z,52064
2017-07-27T10:10:17.997Z,52032
2017-07-27T10:11:17.974Z,51936
2017-07-27T10:12:17.961Z,52128
2017-07-27T10:13:17.954Z,51392
2017-07-27T10:14:17.947Z,49408
2017-07-27T10:15:17.937Z,48832
2017-07-27T10:16:17.929Z,49792
2017-07-27T10:17:17.912Z,50656
2017-07-27T10:18:17.908Z,49504
2017-07-27T10:19:17.580Z,46112
2017-07-27T10:20:17.881Z,43328
2017-07-27T10:21:17.878Z,41760
2017-07-27T10:22:17.842Z,40928
2017-07-27T10:23:17.541Z,42208
2017-07-27T10:24:17.832Z,45152
2017-07-27T10:25:17.836Z,49664
2017-07-27T10:26:17.505Z,55584
2017-07-27T10:27:17.490Z,61216
2017-07-27T10:28:17.790Z,63328
2017-07-27T10:29:17.784Z,63168
2017-07-27T10:30:17.770Z,61408
2017-07-27T10:31:17.475Z,59328
2017-07-27T10:32:17.742Z,56832
2017-07-27T10:33:17.745Z,54464
2017-07-27T10:34:17.740Z,51456
2017-07-27T10:35:17.725Z,47648
2017-07-27T10:36:17.714Z,44352
2017-07-27T10:37:17.706Z,42048
2017-07-27T10:38:17.695Z,40480
2017-07-27T10:39:17.681Z,40032
2017-07-27T10:40:17.378Z,39968
2017-07-27T10:41:17.665Z,40832
2017-07-27T10:42:17.651Z,41152
2017-07-27T10:43:17.644Z,41312
2017-07-27T10:44:17.635Z,42048
2017-07-27T10:45:17.624Z,43296
2017-07-27T10:46:17.607Z,45024
2017-07-27T10:47:17.589Z,45440
2017-07-27T10:48:17.283Z,45568
2017-07-27T10:49:17.289Z,44928
2017-07-27T10:50:17.248Z,44576
2017-07-27T10:51:17.532Z,43520
2017-07-27T10:52:17.550Z,42464
2017-07-27T10:53:17.529Z,41024
2017-07-27T10:54:17.513Z,40128
2017-07-27T10:55:17.486Z,40224
2017-07-27T10:56:17.184Z,39744
2017-07-27T10:57:17.167Z,41856
2017-07-27T10:58:17.462Z,43936
2017-07-27T10:59:17.161Z,45568
2017-07-27T11:00:17.440Z,47424
2017-07-27T11:01:17.445Z,50720
2017-07-27T11:02:17.417Z,52416
2017-07-27T11:03:17.402Z,52928
2017-07-27T11:04:17.098Z,51584
2017-07-27T11:05:17.386Z,49920
2017-07-27T11:06:17.379Z,48288
2017-07-27T11:07:17.365Z,48320
2017-07-27T11:08:17.350Z,51136
2017-07-27T11:09:17.332Z,56224
2017-07-27T11:10:17.344Z,60000
2017-07-27T11:11:17.011Z,56832
2017-07-27T11:12:17.331Z,52448
2017-07-27T11:13:17.301Z,49504
2017-07-27T11:14:16.977Z,48736
2017-07-27T11:15:17.274Z,48832
2017-07-27T11:16:17.267Z,49376
2017-07-27T11:17:17.248Z,50816
2017-07-27T11:18:17.239Z,51776
2017-07-27T11:19:17.224Z,50272
2017-07-27T11:20:17.218Z,48096
2017-07-27T11:21:17.205Z,46464
2017-07-27T11:22:17.200Z,47872
2017-07-27T11:23:17.200Z,49856
2017-07-27T11:24:16.871Z,52576
2017-07-27T11:25:16.846Z,52896
2017-07-27T11:26:16.850Z,52608
2017-07-27T11:27:16.832Z,53248
2017-07-27T11:28:17.126Z,55648
2017-07-27T11:29:17.113Z,57152
2017-07-27T11:30:16.789Z,57376
2017-07-27T11:31:17.078Z,56704
2017-07-27T11:32:16.774Z,56256
2017-07-27T11:33:16.749Z,56160
2017-07-27T11:34:16.741Z,55424
2017-07-27T11:35:17.047Z,52736
2017-07-27T11:36:16.723Z,51424
2017-07-27T11:37:17.016Z,49312
2017-07-27T11:38:16.999Z,46976
2017-07-27T11:39:16.990Z,45408
2017-07-27T11:40:16.672Z,44864
2017-07-27T11:41:16.957Z,45280
2017-07-27T11:42:16.939Z,44352
2017-07-27T11:43:16.932Z,43072
2017-07-27T11:44:16.924Z,41728
2017-07-27T11:45:16.928Z,41728
2017-07-27T11:46:16.893Z,42304
2017-07-27T11:47:16.878Z,42560
2017-07-27T11:48:16.872Z,42752
2017-07-27T11:49:16.850Z,43072
2017-07-27T11:50:16.838Z,44192
2017-07-27T11:51:16.830Z,43296
2017-07-27T11:52:16.825Z,42560
2017-07-27T11:53:16.494Z,41248
2017-07-27T11:54:16.798Z,41088
2017-07-27T11:55:16.783Z,40384
2017-07-27T11:56:16.769Z,39360
2017-07-27T11:57:16.759Z,38784
2017-07-27T11:58:16.748Z,38368
2017-07-27T11:59:16.743Z,37024
2017-07-27T12:00:16.735Z,35680
2017-07-27T12:01:16.712Z,32928
2017-07-27T12:02:16.684Z,30656
2017-07-27T12:03:16.690Z,29376
2017-07-27T12:04:16.363Z,29216
2017-07-27T12:05:16.659Z,29024
2017-07-27T12:06:16.642Z,28800
2017-07-27T12:07:16.627Z,28448
2017-07-27T12:08:16.626Z,29088
2017-07-27T12:09:16.608Z,29536
2017-07-27T12:10:16.600Z,29248
2017-07-27T12:11:16.590Z,28864
2017-07-27T12:12:16.588Z,28928
2017-07-27T12:13:16.560Z,29184
2017-07-27T12:14:16.552Z,28224
2017-07-27T12:15:16.532Z,27264
2017-07-27T12:16:16.219Z,26784
2017-07-27T12:17:16.201Z,26336
2017-07-27T12:18:16.495Z,25376
2017-07-27T12:19:16.494Z,24224
2017-07-27T12:20:16.465Z,23552
2017-07-27T12:21:16.159Z,22592
2017-07-27T12:22:16.441Z,22560
2017-07-27T12:23:16.129Z,23232
2017-07-27T12:24:16.421Z,24064
2017-07-27T12:25:16.412Z,25312
2017-07-27T12:26:16.097Z,25376
2017-07-27T12:27:16.366Z,24224
2017-07-27T12:28:16.377Z,23840
2017-07-27T12:29:16.353Z,23296
2017-07-27T12:30:16.354Z,22944
2017-07-27T12:31:16.319Z,22848
2017-07-27T12:32:16.017Z,23328
2017-07-27T12:33:16.303Z,22720
2017-07-27T12:34:16.278Z,21728
2017-07-27T12:35:16.283Z,22016
2017-07-27T12:36:16.262Z,22560
2017-07-27T12:37:16.251Z,23616
2017-07-27T12:38:15.931Z,24224
2017-07-27T12:39:16.226Z,24512
2017-07-27T12:40:15.609Z,24928
2017-07-27T12:41:16.207Z,25344
2017-07-27T12:42:15.891Z,25280
2017-07-27T12:43:16.180Z,24224
2017-07-27T12:44:16.171Z,22848
2017-07-27T12:45:16.154Z,22048
2017-07-27T12:46:16.132Z,22272
2017-07-27T12:47:15.817Z,24704
2017-07-27T12:48:16.124Z,24480
2017-07-27T12:49:15.801Z,24640
2017-07-27T12:50:16.085Z,24928
2017-07-27T12:51:16.081Z,27616
2017-07-27T12:52:16.073Z,29408
2017-07-27T12:53:16.056Z,28544
2017-07-27T12:54:16.044Z,27968
2017-07-27T12:55:16.038Z,27456
2017-07-27T12:56:15.712Z,26208
2017-07-27T12:57:16.004Z,26656
2017-07-27T12:58:16.020Z,25952
2017-07-27T12:59:16.005Z,27520
2017-07-27T13:00:15.971Z,27072
2017-07-27T13:01:15.953Z,27904
2017-07-27T13:02:15.633Z,28928
2017-07-27T13:03:15.635Z,28928
2017-07-27T13:04:15.928Z,27424
2017-07-27T13:05:15.597Z,27584
2017-07-27T13:06:15.892Z,30368
2017-07-27T13:07:15.882Z,30400
2017-07-27T13:08:15.871Z,31264
2017-07-27T13:09:15.547Z,33056
2017-07-27T13:10:15.528Z,34784
2017-07-27T13:11:15.830Z,35488
2017-07-27T13:12:15.815Z,36640
2017-07-27T13:13:15.514Z,43136
2017-07-27T13:14:15.500Z,45568
2017-07-27T13:15:15.778Z,48256
2017-07-27T13:16:15.464Z,48736
2017-07-27T13:17:15.453Z,41632
2017-07-27T13:18:15.727Z,35520
2017-07-27T13:19:15.747Z,32320
2017-07-27T13:20:15.711Z,32576
2017-07-27T13:21:15.690Z,32992
2017-07-27T13:22:15.693Z,35072
2017-07-27T13:23:15.683Z,29728
2017-07-27T13:24:15.360Z,31680
2017-07-27T13:25:15.669Z,32448
2017-07-27T13:26:15.652Z,32608
2017-07-27T13:27:15.630Z,32224